createdAt,value
2018-05-01T00:01:12.187Z,13.40
2018-05-01T00:03:39.849Z,13.40
2018-05-01T00:06:07.508Z,13.50
2018-05-01T00:08:35.176Z,13.50
2018-05-01T00:11:02.839Z,13.50
2018-05-01T00:13:30.512Z,13.50
2018-05-01T00:15:58.182Z,13.60
2018-05-01T00:18:25.838Z,13.60
2018-05-01T00:20:53.503Z,13.60
2018-05-01T00:23:21.255Z,13.50
2018-05-01T00:25:48.930Z,13.50
2018-05-01T00:28:16.596Z,13.40
2018-05-01T00:30:44.346Z,13.40
2018-05-01T00:33:12.111Z,13.30
2018-05-01T00:35:39.766Z,13.20
2018-05-01T00:38:08.255Z,13.10
2018-05-01T00:40:35.925Z,13.00
2018-05-01T00:43:03.591Z,13.00
2018-05-01T00:45:31.256Z,12.90
2018-05-01T00:47:58.927Z,12.90
2018-05-01T00:50:26.579Z,12.90
2018-05-01T00:52:54.248Z,12.90
2018-05-01T00:55:21.902Z,12.90
2018-05-01T00:57:49.573Z,12.90
2018-05-01T01:00:17.222Z,13.00
2018-05-01T01:02:44.918Z,13.00
2018-05-01T01:05:12.576Z,13.00
2018-05-01T01:07:40.247Z,13.10
2018-05-01T01:10:07.902Z,13.10
2018-05-01T01:12:35.647Z,13.20
2018-05-01T01:15:03.403Z,13.30
2018-05-01T01:17:31.169Z,13.30
2018-05-01T01:19:58.877Z,13.40
2018-05-01T01:22:26.500Z,13.40
2018-05-01T01:24:54.162Z,13.40
2018-05-01T01:27:21.812Z,13.50
2018-05-01T01:29:49.481Z,13.50
2018-05-01T01:32:17.127Z,13.50
2018-05-01T01:34:45.559Z,13.60
2018-05-01T01:37:12.952Z,13.60
2018-05-01T01:39:41.142Z,13.70
2018-05-01T01:42:09.314Z,13.80
2018-05-01T01:44:37.511Z,13.80
2018-05-01T01:47:04.912Z,13.80
2018-05-01T01:49:32.327Z,13.90
2018-05-01T01:51:59.732Z,13.90
2018-05-01T01:54:27.232Z,14.00
2018-05-01T01:56:54.696Z,14.00
2018-05-01T01:59:22.111Z,14.00
2018-05-01T02:01:49.606Z,14.00
2018-05-01T02:04:17.022Z,14.00
2018-05-01T02:06:44.419Z,14.00
2018-05-01T02:09:11.847Z,14.00
2018-05-01T02:11:39.251Z,13.90
2018-05-01T02:14:06.669Z,14.00
2018-05-01T02:16:34.153Z,14.00
2018-05-01T02:19:01.563Z,14.00
2018-05-01T02:21:28.972Z,13.90
2018-05-01T02:23:56.423Z,13.80
2018-05-01T02:26:23.821Z,13.90
2018-05-01T02:28:51.238Z,13.80
2018-05-01T02:31:18.703Z,13.80
2018-05-01T02:33:46.160Z,13.80
2018-05-01T02:36:13.609Z,13.70
2018-05-01T02:38:41.028Z,13.70
2018-05-01T02:41:08.624Z,13.70
2018-05-01T02:43:35.983Z,13.60
2018-05-01T02:46:03.443Z,13.70
2018-05-01T02:48:30.848Z,13.60
2018-05-01T02:50:58.307Z,13.50
2018-05-01T02:53:25.672Z,13.50
2018-05-01T02:55:53.091Z,13.50
2018-05-01T02:58:20.491Z,13.50
2018-05-01T03:00:47.907Z,13.50
2018-05-01T03:03:15.335Z,13.50
2018-05-01T03:05:42.763Z,13.50
2018-05-01T03:08:10.263Z,13.50
2018-05-01T03:10:37.680Z,13.50
2018-05-01T03:13:05.083Z,13.50
2018-05-01T03:15:32.491Z,13.60
2018-05-01T03:17:59.897Z,13.60
2018-05-01T03:20:27.392Z,13.60
2018-05-01T03:22:54.760Z,13.60
2018-05-01T03:25:22.179Z,13.60
2018-05-01T03:27:49.567Z,13.60
2018-05-01T03:30:16.983Z,13.60
2018-05-01T03:32:44.427Z,13.60
2018-05-01T03:35:11.842Z,13.60
2018-05-01T03:37:39.250Z,13.60
2018-05-01T03:40:06.699Z,13.60
2018-05-01T03:42:34.100Z,13.60
2018-05-01T03:45:01.515Z,13.60
2018-05-01T03:47:28.913Z,13.60
2018-05-01T03:49:56.335Z,13.60
2018-05-01T03:52:23.828Z,13.60
2018-05-01T03:54:51.186Z,13.50
2018-05-01T03:57:18.700Z,13.50
2018-05-01T03:59:46.202Z,13.50
2018-05-01T04:02:13.628Z,13.50
2018-05-01T04:04:41.031Z,13.50
2018-05-01T04:07:09.471Z,13.50
2018-05-01T04:09:36.912Z,13.50
2018-05-01T04:12:04.327Z,13.50
2018-05-01T04:14:31.725Z,13.50
2018-05-01T04:16:59.143Z,13.40
2018-05-01T04:19:26.538Z,13.50
2018-05-01T04:21:53.946Z,13.50
2018-05-01T04:24:21.344Z,13.50
2018-05-01T04:26:48.756Z,13.50
2018-05-01T04:29:16.168Z,13.40
2018-05-01T04:31:43.629Z,13.40
2018-05-01T04:34:11.128Z,13.50
2018-05-01T04:36:38.597Z,13.50
2018-05-01T04:39:06.053Z,13.50
2018-05-01T04:41:33.512Z,13.50
2018-05-01T04:44:00.871Z,13.50
2018-05-01T04:46:28.380Z,13.60
2018-05-01T04:48:55.782Z,13.50
2018-05-01T04:51:24.003Z,13.60
2018-05-01T04:53:51.389Z,13.60
2018-05-01T04:56:18.902Z,13.50
2018-05-01T04:58:46.301Z,13.50
2018-05-01T05:01:13.715Z,13.60
2018-05-01T05:03:41.174Z,13.60
2018-05-01T05:06:08.648Z,13.60
2018-05-01T05:08:36.141Z,13.60
2018-05-01T05:11:03.600Z,13.60
2018-05-01T05:13:31.058Z,13.50
2018-05-01T05:15:58.516Z,13.50
2018-05-01T05:18:25.894Z,13.50
2018-05-01T05:20:53.287Z,13.50
2018-05-01T05:23:20.707Z,13.50
2018-05-01T05:25:48.144Z,13.50
2018-05-01T05:28:15.563Z,13.50
2018-05-01T05:30:42.968Z,13.40
2018-05-01T05:33:11.898Z,13.50
2018-05-01T05:35:39.355Z,13.50
2018-05-01T05:38:06.779Z,13.50
2018-05-01T05:40:34.190Z,13.60
2018-05-01T05:43:01.602Z,13.50
2018-05-01T05:45:28.995Z,13.50
2018-05-01T05:47:56.415Z,13.50
2018-05-01T05:50:23.899Z,13.60
2018-05-01T05:52:51.361Z,13.50
2018-05-01T05:55:18.754Z,13.60
2018-05-01T05:57:46.176Z,13.60
2018-05-01T06:00:13.577Z,13.60
2018-05-01T06:02:41.091Z,13.60
2018-05-01T06:05:08.549Z,13.50
2018-05-01T06:07:36.013Z,13.60
2018-05-01T06:10:03.424Z,13.60
2018-05-01T06:12:30.839Z,13.70
2018-05-01T06:14:58.246Z,13.70
2018-05-01T06:17:26.423Z,13.70
2018-05-01T06:19:54.591Z,13.70
2018-05-01T06:22:22.770Z,13.70
2018-05-01T06:24:50.945Z,13.80
2018-05-01T06:27:19.123Z,13.80
2018-05-01T06:29:47.294Z,13.80
2018-05-01T06:32:14.725Z,13.70
2018-05-01T06:34:42.129Z,13.80
2018-05-01T06:37:10.293Z,13.90
2018-05-01T06:39:38.466Z,13.80
2018-05-01T06:42:06.663Z,13.80
2018-05-01T06:44:34.075Z,13.80
2018-05-01T06:47:01.478Z,13.90
2018-05-01T06:49:28.899Z,13.90
2018-05-01T06:51:56.288Z,13.90
2018-05-01T06:54:23.713Z,14.00
2018-05-01T06:56:51.150Z,14.00
2018-05-01T06:59:18.565Z,14.00
2018-05-01T07:01:45.966Z,14.00
2018-05-01T07:04:13.514Z,14.10
2018-05-01T07:06:40.798Z,14.10
2018-05-01T07:09:08.214Z,14.20
2018-05-01T07:11:35.642Z,14.20
2018-05-01T07:14:03.073Z,14.20
2018-05-01T07:16:30.501Z,14.20
2018-05-01T07:18:57.943Z,14.10
2018-05-01T07:21:25.313Z,14.10
2018-05-01T07:23:52.830Z,14.10
2018-05-01T07:26:20.290Z,14.20
2018-05-01T07:28:47.797Z,14.30
2018-05-01T07:31:15.167Z,14.40
2018-05-01T07:33:42.590Z,14.50
2018-05-01T07:36:09.996Z,14.60
2018-05-01T07:38:38.188Z,14.50
2018-05-01T07:41:06.359Z,14.50
2018-05-01T07:43:34.543Z,14.50
2018-05-01T07:46:01.954Z,14.50
2018-05-01T07:48:29.378Z,14.30
2018-05-01T07:50:56.827Z,14.20
2018-05-01T07:53:24.232Z,14.10
2018-05-01T07:55:51.657Z,14.10
2018-05-01T07:58:19.101Z,14.10
2018-05-01T08:00:46.519Z,14.10
2018-05-01T08:03:13.922Z,14.10
2018-05-01T08:05:41.344Z,14.10
2018-05-01T08:08:09.508Z,14.20
2018-05-01T08:10:37.000Z,14.20
2018-05-01T08:13:04.461Z,14.20
2018-05-01T08:15:31.880Z,14.20
2018-05-01T08:17:59.376Z,14.20
2018-05-01T08:20:26.794Z,14.10
2018-05-01T08:22:54.281Z,14.10
2018-05-01T08:25:21.704Z,14.10
2018-05-01T08:27:49.148Z,14.20
2018-05-01T08:30:16.560Z,14.20
2018-05-01T08:32:43.966Z,14.10
2018-05-01T08:35:11.418Z,14.20
2018-05-01T08:37:38.829Z,14.30
2018-05-01T08:40:06.291Z,14.20
2018-05-01T08:42:33.688Z,14.10
2018-05-01T08:45:01.110Z,14.10
2018-05-01T08:47:28.609Z,14.20
2018-05-01T08:49:55.996Z,14.20
2018-05-01T08:52:24.187Z,14.20
2018-05-01T08:54:51.633Z,14.20
2018-05-01T08:57:19.882Z,14.10
2018-05-01T08:59:47.285Z,14.10
2018-05-01T09:02:14.690Z,14.10
2018-05-01T09:04:42.131Z,13.90
2018-05-01T09:07:09.543Z,13.90
2018-05-01T09:09:37.870Z,13.80
2018-05-01T09:12:05.281Z,13.80
2018-05-01T09:14:32.675Z,13.90
2018-05-01T09:17:00.225Z,13.90
2018-05-01T09:19:27.531Z,14.00
2018-05-01T09:21:55.783Z,14.00
2018-05-01T09:24:23.238Z,13.90
2018-05-01T09:26:50.619Z,14.10
2018-05-01T09:29:18.780Z,14.30
2018-05-01T09:31:46.278Z,14.30
2018-05-01T09:34:13.691Z,14.40
2018-05-01T09:36:41.112Z,14.40
2018-05-01T09:39:08.523Z,14.50
2018-05-01T09:41:35.935Z,14.50
2018-05-01T09:44:03.339Z,14.60
2018-05-01T09:46:31.543Z,14.60
2018-05-01T09:48:59.003Z,14.60
2018-05-01T09:51:26.441Z,14.70
2018-05-01T09:53:54.090Z,14.80
2018-05-01T09:56:21.766Z,14.80
2018-05-01T09:58:50.195Z,14.80
2018-05-01T10:01:17.861Z,14.80
2018-05-01T10:03:45.521Z,14.70
2018-05-01T10:06:13.208Z,14.70
2018-05-01T10:08:40.860Z,14.80
2018-05-01T10:11:08.539Z,14.90
2018-05-01T10:13:36.294Z,15.00
2018-05-01T10:16:04.020Z,15.00
2018-05-01T10:18:31.717Z,15.10
2018-05-01T10:20:59.442Z,15.20
2018-05-01T10:23:27.091Z,15.20
2018-05-01T10:25:54.769Z,15.20
2018-05-01T10:28:22.434Z,15.30
2018-05-01T10:30:50.090Z,15.40
2018-05-01T10:33:17.795Z,15.50
2018-05-01T10:35:45.415Z,15.60
2018-05-01T10:38:13.188Z,15.60
2018-05-01T10:40:40.852Z,15.70
2018-05-01T10:43:08.599Z,15.70
2018-05-01T10:45:36.266Z,15.60
2018-05-01T10:48:03.876Z,15.70
2018-05-01T10:50:31.607Z,15.70
2018-05-01T10:52:59.270Z,15.70
2018-05-01T10:55:26.945Z,15.80
2018-05-01T10:57:54.625Z,15.80
2018-05-01T11:00:22.386Z,15.80
2018-05-01T11:02:50.055Z,15.70
2018-05-01T11:05:17.707Z,15.80
2018-05-01T11:07:45.448Z,15.70
2018-05-01T11:10:13.109Z,15.90
2018-05-01T11:12:40.789Z,16.10
2018-05-01T11:15:08.442Z,16.30
2018-05-01T11:17:36.235Z,16.30
2018-05-01T11:20:03.959Z,16.20
2018-05-01T11:22:31.628Z,16.30
2018-05-01T11:24:59.293Z,16.50
2018-05-01T11:27:26.983Z,16.50
2018-05-01T11:29:54.647Z,16.40
2018-05-01T11:32:22.417Z,16.50
2018-05-01T11:34:50.035Z,16.60
2018-05-01T11:37:17.708Z,17.00
2018-05-01T11:39:45.455Z,17.10
2018-05-01T11:42:13.244Z,17.10
2018-05-01T11:44:40.882Z,17.10
2018-05-01T11:47:08.701Z,17.00
2018-05-01T11:49:36.340Z,17.00
2018-05-01T11:52:04.086Z,16.80
2018-05-01T11:54:31.782Z,16.80
2018-05-01T11:56:59.454Z,16.70
2018-05-01T11:59:27.123Z,16.60
2018-05-01T12:01:54.780Z,16.70
2018-05-01T12:04:22.450Z,16.70
2018-05-01T12:06:50.117Z,16.80
2018-05-01T12:09:17.791Z,16.80
2018-05-01T12:11:46.307Z,17.20
2018-05-01T12:14:14.020Z,17.20
2018-05-01T12:16:41.643Z,17.10
2018-05-01T12:19:09.342Z,17.20
2018-05-01T12:21:37.063Z,18.20
2018-05-01T12:24:04.743Z,18.60
2018-05-01T12:26:32.429Z,19.10
2018-05-01T12:29:00.064Z,19.20
2018-05-01T12:31:27.730Z,19.30
2018-05-01T12:33:55.396Z,20.90
2018-05-01T12:36:23.054Z,21.20
2018-05-01T12:38:50.799Z,20.40
2018-05-01T12:41:18.577Z,21.50
2018-05-01T12:43:46.239Z,23.00
2018-05-01T12:46:13.899Z,24.90
2018-05-01T12:48:41.651Z,25.70
2018-05-01T12:51:09.348Z,25.10
2018-05-01T12:53:37.079Z,25.80
2018-05-01T12:56:04.736Z,25.60
2018-05-01T12:58:33.195Z,26.90
2018-05-01T13:01:01.708Z,26.50
2018-05-01T13:03:29.370Z,26.50
2018-05-01T13:05:57.063Z,26.50
2018-05-01T13:08:24.805Z,25.40
2018-05-01T13:10:52.563Z,25.80
2018-05-01T13:13:20.232Z,25.80
2018-05-01T13:15:48.117Z,25.10
2018-05-01T13:18:15.769Z,25.20
2018-05-01T13:20:43.434Z,25.70
2018-05-01T13:23:11.095Z,24.90
2018-05-01T13:25:38.767Z,24.80
2018-05-01T13:28:06.560Z,24.00
2018-05-01T13:30:34.282Z,22.50
2018-05-01T13:33:02.043Z,22.00
2018-05-01T13:35:29.724Z,23.40
2018-05-01T13:37:57.559Z,24.40
2018-05-01T13:40:25.155Z,24.80
2018-05-01T13:42:52.891Z,25.10
2018-05-01T13:45:20.627Z,24.80
2018-05-01T13:47:48.243Z,25.80
2018-05-01T13:50:15.932Z,25.60
2018-05-01T13:52:43.659Z,25.60
2018-05-01T13:55:11.358Z,25.80
2018-05-01T13:57:39.072Z,24.90
2018-05-01T14:00:06.788Z,25.80
2018-05-01T14:02:34.407Z,25.30
2018-05-01T14:05:02.172Z,26.40
2018-05-01T14:07:30.751Z,27.10
2018-05-01T14:09:59.610Z,26.50
2018-05-01T14:12:27.279Z,26.50
2018-05-01T14:14:55.722Z,26.30
2018-05-01T14:17:23.748Z,26.30
2018-05-01T14:19:51.374Z,26.80
2018-05-01T14:22:19.108Z,25.50
2018-05-01T14:24:46.779Z,25.10
2018-05-01T14:27:14.442Z,25.80
2018-05-01T14:29:42.223Z,25.10
2018-05-01T14:32:09.887Z,25.50
2018-05-01T14:34:37.603Z,25.70
2018-05-01T14:37:05.287Z,26.80
2018-05-01T14:39:32.944Z,25.50
2018-05-01T14:42:00.759Z,26.20
2018-05-01T14:44:29.173Z,25.80
2018-05-01T14:46:56.839Z,24.60
2018-05-01T14:49:24.615Z,24.90
2018-05-01T14:51:52.287Z,25.10
2018-05-01T14:54:20.029Z,24.50
2018-05-01T14:56:47.726Z,24.90
2018-05-01T14:59:15.464Z,24.10
2018-05-01T15:01:43.218Z,23.40
2018-05-01T15:04:10.895Z,22.00
2018-05-01T15:06:38.658Z,21.00
2018-05-01T15:09:06.421Z,20.00
2018-05-01T15:11:34.332Z,20.60
2018-05-01T15:14:02.050Z,21.60
2018-05-01T15:16:29.767Z,22.00
2018-05-01T15:18:57.444Z,22.30
2018-05-01T15:21:25.135Z,22.00
2018-05-01T15:23:52.851Z,21.90
2018-05-01T15:26:20.479Z,21.50
2018-05-01T15:28:48.278Z,21.50
2018-05-01T15:31:16.461Z,21.70
2018-05-01T15:33:44.075Z,21.50
2018-05-01T15:36:12.760Z,20.70
2018-05-01T15:38:40.466Z,20.40
2018-05-01T15:41:08.191Z,19.60
2018-05-01T15:43:35.893Z,19.00
2018-05-01T15:46:03.619Z,19.00
2018-05-01T15:48:31.272Z,19.00
2018-05-01T15:50:58.949Z,18.20
2018-05-01T15:53:26.607Z,17.80
2018-05-01T15:55:54.368Z,17.20
2018-05-01T15:58:22.132Z,16.90
2018-05-01T16:00:49.867Z,17.00
2018-05-01T16:03:17.475Z,17.50
2018-05-01T16:05:45.136Z,18.50
2018-05-01T16:10:57.932Z,21.20
2018-05-01T16:13:26.442Z,22.90
2018-05-01T16:15:54.088Z,22.80
2018-05-01T16:18:21.785Z,23.40
2018-05-01T16:20:49.534Z,23.80
2018-05-01T16:23:17.197Z,23.10
2018-05-01T16:25:44.937Z,22.70
2018-05-01T16:28:13.363Z,23.20
2018-05-01T16:30:41.104Z,23.20
2018-05-01T16:33:08.782Z,23.10
2018-05-01T16:35:36.533Z,22.30
2018-05-01T16:38:04.199Z,23.10
2018-05-01T16:40:31.854Z,22.30
2018-05-01T16:42:59.524Z,22.70
2018-05-01T16:45:27.174Z,23.80
2018-05-01T16:47:55.103Z,24.10
2018-05-01T16:50:22.777Z,24.80
2018-05-01T16:52:50.465Z,24.80
2018-05-01T16:55:18.119Z,23.70
2018-05-01T16:57:46.630Z,23.50
2018-05-01T17:00:14.763Z,23.50
2018-05-01T17:02:42.436Z,23.10
2018-05-01T17:05:10.863Z,22.20
2018-05-01T17:07:38.551Z,22.20
2018-05-01T17:10:06.310Z,22.30
2018-05-01T17:12:34.033Z,22.60
2018-05-01T17:15:01.700Z,22.70
2018-05-01T17:17:29.362Z,22.40
2018-05-01T17:19:57.029Z,22.30
2018-05-01T17:22:24.779Z,22.30
2018-05-01T17:24:52.447Z,21.70
2018-05-01T17:27:20.131Z,21.60
2018-05-01T17:29:47.871Z,21.40
2018-05-01T17:32:15.542Z,21.90
2018-05-01T17:34:43.224Z,21.70
2018-05-01T17:37:10.984Z,21.40
2018-05-01T17:39:38.702Z,20.50
2018-05-01T17:42:07.228Z,19.80
2018-05-01T17:44:34.890Z,19.80
2018-05-01T17:47:02.547Z,19.50
2018-05-01T17:49:30.231Z,19.70
2018-05-01T17:51:57.884Z,19.40
2018-05-01T17:54:25.582Z,19.30
2018-05-01T17:56:53.208Z,18.90
2018-05-01T17:59:20.899Z,18.80
2018-05-01T18:01:48.545Z,18.50
2018-05-01T18:04:16.281Z,18.30
2018-05-01T18:06:44.043Z,18.30
2018-05-01T18:09:11.793Z,17.90
2018-05-01T18:11:39.404Z,17.60
2018-05-01T18:14:07.078Z,17.10
2018-05-01T18:16:34.771Z,16.70
2018-05-01T18:19:02.420Z,16.40
2018-05-01T18:21:30.067Z,16.00
2018-05-01T18:23:57.754Z,15.70
2018-05-01T18:26:26.171Z,15.10
2018-05-01T18:28:53.844Z,15.10
2018-05-01T18:31:21.586Z,14.90
2018-05-01T18:33:49.377Z,14.70
2018-05-01T18:36:17.523Z,14.60
2018-05-01T18:38:45.320Z,14.40
2018-05-01T18:41:12.962Z,14.30
2018-05-01T18:43:40.620Z,14.20
2018-05-01T18:46:08.383Z,14.10
2018-05-01T18:48:36.056Z,14.00
2018-05-01T18:51:03.724Z,14.00
2018-05-01T18:53:31.383Z,13.90
2018-05-01T18:55:59.057Z,13.80
2018-05-01T18:58:26.703Z,13.70
2018-05-01T19:00:55.487Z,13.50
2018-05-01T19:03:23.147Z,13.50
2018-05-01T19:05:50.817Z,13.50
2018-05-01T19:08:18.575Z,13.50
2018-05-01T19:10:46.263Z,13.50
2018-05-01T19:13:13.932Z,13.50
2018-05-01T19:15:41.608Z,13.40
2018-05-01T19:18:09.265Z,13.40
2018-05-01T19:20:37.009Z,13.40
2018-05-01T19:23:04.655Z,13.40
2018-05-01T19:25:32.335Z,13.30
2018-05-01T19:27:59.993Z,13.30
2018-05-01T19:30:27.668Z,13.30
2018-05-01T19:32:55.324Z,13.20
2018-05-01T19:35:23.017Z,13.20
2018-05-01T19:37:50.738Z,13.10
2018-05-01T19:40:18.408Z,13.10
2018-05-01T19:42:46.056Z,13.00
2018-05-01T19:45:13.732Z,12.90
2018-05-01T19:47:41.390Z,12.80
2018-05-01T19:50:09.056Z,12.80
2018-05-01T19:52:36.712Z,12.70
2018-05-01T19:55:04.480Z,12.70
2018-05-01T19:57:32.244Z,12.60
2018-05-01T19:59:59.911Z,12.60
2018-05-01T20:02:27.569Z,12.50
2018-05-01T20:04:55.256Z,12.50
2018-05-01T20:07:22.913Z,12.50
2018-05-01T20:09:50.583Z,12.50
2018-05-01T20:12:18.328Z,12.50
2018-05-01T20:14:45.980Z,12.40
2018-05-01T20:17:14.104Z,12.40
2018-05-01T20:19:41.727Z,12.30
2018-05-01T20:22:09.404Z,12.30
2018-05-01T20:24:37.221Z,12.20
2018-05-01T20:27:04.871Z,12.20
2018-05-01T20:29:32.524Z,12.20
2018-05-01T20:32:00.180Z,12.10
2018-05-01T20:34:27.904Z,12.10
2018-05-01T20:36:55.574Z,12.10
2018-05-01T20:39:23.232Z,12.10
2018-05-01T20:41:50.987Z,12.10
2018-05-01T20:44:18.699Z,12.10
2018-05-01T20:46:46.436Z,12.00
2018-05-01T20:49:14.195Z,12.00
2018-05-01T20:51:41.868Z,12.00
2018-05-01T20:54:09.556Z,11.90
2018-05-01T20:56:37.205Z,11.80
2018-05-01T20:59:04.859Z,11.80
2018-05-01T21:01:32.531Z,11.80
2018-05-01T21:04:00.192Z,11.80
2018-05-01T21:06:27.935Z,11.80
2018-05-01T21:08:55.691Z,11.70
2018-05-01T21:11:23.460Z,11.70
2018-05-01T21:13:51.125Z,11.70
2018-05-01T21:16:19.418Z,11.70
2018-05-01T21:18:47.087Z,11.70
2018-05-01T21:21:14.765Z,11.60
2018-05-01T21:23:43.444Z,11.60
2018-05-01T21:26:11.115Z,11.60
2018-05-01T21:28:38.767Z,11.60
2018-05-01T21:31:06.451Z,11.60
2018-05-01T21:33:34.100Z,11.60
2018-05-01T21:36:01.827Z,11.60
2018-05-01T21:38:29.486Z,11.60
2018-05-01T21:40:57.308Z,11.60
2018-05-01T21:43:24.950Z,11.60
2018-05-01T21:45:52.604Z,11.60
2018-05-01T21:48:20.280Z,11.50
2018-05-01T21:50:47.930Z,11.50
2018-05-01T21:53:15.609Z,11.50
2018-05-01T21:55:43.257Z,11.50
2018-05-01T21:58:10.923Z,11.50
2018-05-01T22:00:38.603Z,11.50
2018-05-01T22:03:06.331Z,11.50
2018-05-01T22:05:34.091Z,11.50
2018-05-01T22:08:01.778Z,11.50
2018-05-01T22:10:29.452Z,11.50
2018-05-01T22:12:57.116Z,11.40
2018-05-01T22:15:24.778Z,11.40
2018-05-01T22:17:52.444Z,11.40
2018-05-01T22:20:20.175Z,11.30
2018-05-01T22:22:47.835Z,11.30
2018-05-01T22:25:15.491Z,11.30
2018-05-01T22:27:43.179Z,11.30
2018-05-01T22:30:10.859Z,11.30
2018-05-01T22:32:38.519Z,11.30
2018-05-01T22:35:06.168Z,11.20
2018-05-01T22:37:33.844Z,11.20
2018-05-01T22:40:01.512Z,11.20
2018-05-01T22:42:29.184Z,11.30
2018-05-01T22:44:56.839Z,11.20
2018-05-01T22:47:24.601Z,11.30
2018-05-01T22:49:52.324Z,11.20
2018-05-01T22:52:20.032Z,11.20
2018-05-01T22:54:47.763Z,11.20
2018-05-01T22:57:15.422Z,11.20
2018-05-01T22:59:43.325Z,11.20
2018-05-01T23:02:10.943Z,11.20
2018-05-01T23:04:38.616Z,11.20
2018-05-01T23:07:06.263Z,11.10
2018-05-01T23:09:33.946Z,11.00
2018-05-01T23:12:01.711Z,11.00
2018-05-01T23:14:30.939Z,10.90
2018-05-01T23:16:58.596Z,10.80
2018-05-01T23:19:26.267Z,10.80
2018-05-01T23:21:53.921Z,10.80
2018-05-01T23:24:21.592Z,10.70
2018-05-01T23:26:49.261Z,10.80
2018-05-01T23:29:16.927Z,10.70
2018-05-01T23:31:45.356Z,10.60
2018-05-01T23:34:13.028Z,10.50
2018-05-01T23:36:40.784Z,10.60
2018-05-01T23:39:08.547Z,10.60
2018-05-01T23:41:36.310Z,10.60
2018-05-01T23:44:04.012Z,10.60
2018-05-01T23:46:31.720Z,10.60
2018-05-01T23:49:00.218Z,10.50
2018-05-01T23:51:27.880Z,10.50
2018-05-01T23:53:55.546Z,10.40
2018-05-01T23:56:23.327Z,10.40
2018-05-01T23:58:50.990Z,10.40
